sensor_id;sensor_type;location;lat;lon;timestamp;temperature;humidity
4787;DHT22;62338;48.832;9.422;2023-02-01T00:01:43;2.20;99.90
4787;DHT22;62338;48.832;9.422;2023-02-01T00:03:45;2.20;99.90
4787;DHT22;62338;48.832;9.422;2023-02-01T00:05:57;2.20;99.90
4787;DHT22;62338;48.832;9.422;2023-02-01T00:07:59;2.30;99.90
4787;DHT22;62338;48.832;9.422;2023-02-01T00:10:00;2.20;99.90
4787;DHT22;62338;48.832;9.422;2023-02-01T00:12:02;2.30;99.90
4787;DHT22;62338;48.832;9.422;2023-02-01T00:14:05;2.20;99.90
4787;DHT22;62338;48.832;9.422;2023-02-01T00:16:11;2.30;99.90
4787;DHT22;62338;48.832;9.422;2023-02-01T00:18:17;2.20;99.90
4787;DHT22;62338;48.832;9.422;2023-02-01T00:20:19;2.20;99.90
4787;DHT22;62338;48.832;9.422;2023-02-01T00:22:21;2.20;99.90
4787;DHT22;62338;48.832;9.422;2023-02-01T00:24:23;2.20;99.90
4787;DHT22;62338;48.832;9.422;2023-02-01T00:28:29;2.20;99.90
4787;DHT22;62338;48.832;9.422;2023-02-01T00:30:31;2.20;99.90
4787;DHT22;62338;48.832;9.422;2023-02-01T00:32:33;2.30;99.90
4787;DHT22;62338;48.832;9.422;2023-02-01T00:34:35;2.20;99.90
4787;DHT22;62338;48.832;9.422;2023-02-01T00:36:36;2.20;99.90
4787;DHT22;62338;48.832;9.422;2023-02-01T00:38:39;2.20;99.90
4787;DHT22;62338;48.832;9.422;2023-02-01T00:40:41;2.20;99.90
4787;DHT22;62338;48.832;9.422;2023-02-01T00:42:42;2.20;99.90
4787;DHT22;62338;48.832;9.422;2023-02-01T00:44:44;2.20;99.90
4787;DHT22;62338;48.832;9.422;2023-02-01T00:46:46;2.20;99.90
4787;DHT22;62338;48.832;9.422;2023-02-01T00:48:48;2.10;99.90
4787;DHT22;62338;48.832;9.422;2023-02-01T00:50:50;2.10;99.90
4787;DHT22;62338;48.832;9.422;2023-02-01T00:52:52;2.20;99.90
4787;DHT22;62338;48.832;9.422;2023-02-01T00:54:54;2.10;99.90
4787;DHT22;62338;48.832;9.422;2023-02-01T00:56:56;2.20;99.90
4787;DHT22;62338;48.832;9.422;2023-02-01T00:58:57;2.20;99.90
4787;DHT22;62338;48.832;9.422;2023-02-01T01:01:11;2.20;99.90
4787;DHT22;62338;48.832;9.422;2023-02-01T01:03:13;2.10;99.90
4787;DHT22;62338;48.832;9.422;2023-02-01T01:05:21;2.10;99.90
4787;DHT22;62338;48.832;9.422;2023-02-01T01:07:22;2.10;99.90
4787;DHT22;62338;48.832;9.422;2023-02-01T01:09:24;2.10;99.90
4787;DHT22;62338;48.832;9.422;2023-02-01T01:11:28;2.10;99.90
4787;DHT22;62338;48.832;9.422;2023-02-01T01:13:30;2.10;99.90
4787;DHT22;62338;48.832;9.422;2023-02-01T01:15:39;2.10;99.90
4787;DHT22;62338;48.832;9.422;2023-02-01T01:17:41;2.10;99.90
4787;DHT22;62338;48.832;9.422;2023-02-01T01:19:43;2.20;99.90
4787;DHT22;62338;48.832;9.422;2023-02-01T01:21:44;2.10;99.90
4787;DHT22;62338;48.832;9.422;2023-02-01T01:23:47;2.10;99.90
4787;DHT22;62338;48.832;9.422;2023-02-01T01:25:48;2.20;99.90
4787;DHT22;62338;48.832;9.422;2023-02-01T01:27:50;2.20;99.90
4787;DHT22;62338;48.832;9.422;2023-02-01T01:29:52;2.20;99.90
4787;DHT22;62338;48.832;9.422;2023-02-01T01:31:54;2.20;99.90
4787;DHT22;62338;48.832;9.422;2023-02-01T01:33:58;2.20;99.90
4787;DHT22;62338;48.832;9.422;2023-02-01T01:36:00;2.10;99.90
4787;DHT22;62338;48.832;9.422;2023-02-01T01:38:02;2.20;99.90
4787;DHT22;62338;48.832;9.422;2023-02-01T01:40:05;2.10;99.90
4787;DHT22;62338;48.832;9.422;2023-02-01T01:42:10;2.20;99.90
4787;DHT22;62338;48.832;9.422;2023-02-01T01:46:53;2.20;99.90
4787;DHT22;62338;48.832;9.422;2023-02-01T01:51:10;2.20;99.90
4787;DHT22;62338;48.832;9.422;2023-02-01T01:53:14;2.20;99.90
4787;DHT22;62338;48.832;9.422;2023-02-01T01:55:20;2.20;99.90
4787;DHT22;62338;48.832;9.422;2023-02-01T01:57:33;2.20;99.90
4787;DHT22;62338;48.832;9.422;2023-02-01T01:59:37;2.20;99.90
4787;DHT22;62338;48.832;9.422;2023-02-01T02:01:40;2.20;99.90
4787;DHT22;62338;48.832;9.422;2023-02-01T02:03:43;2.20;99.90
4787;DHT22;62338;48.832;9.422;2023-02-01T02:05:50;2.20;99.90
4787;DHT22;62338;48.832;9.422;2023-02-01T02:07:53;2.20;99.90
4787;DHT22;62338;48.832;9.422;2023-02-01T02:09:58;2.20;99.90
4787;DHT22;62338;48.832;9.422;2023-02-01T02:12:02;2.20;99.90
4787;DHT22;62338;48.832;9.422;2023-02-01T02:14:06;2.20;99.90
4787;DHT22;62338;48.832;9.422;2023-02-01T02:21:52;2.30;99.90
4787;DHT22;62338;48.832;9.422;2023-02-01T02:24:16;2.30;99.90
4787;DHT22;62338;48.832;9.422;2023-02-01T02:27:07;2.20;99.90
4787;DHT22;62338;48.832;9.422;2023-02-01T02:29:36;2.30;99.90
4787;DHT22;62338;48.832;9.422;2023-02-01T02:34:08;2.20;99.90
4787;DHT22;62338;48.832;9.422;2023-02-01T02:44:55;2.30;99.90
4787;DHT22;62338;48.832;9.422;2023-02-01T02:47:33;2.20;99.90
4787;DHT22;62338;48.832;9.422;2023-02-01T02:49:42;2.20;99.90
4787;DHT22;62338;48.832;9.422;2023-02-01T02:52:15;2.20;99.90
4787;DHT22;62338;48.832;9.422;2023-02-01T02:54:48;2.30;99.90
4787;DHT22;62338;48.832;9.422;2023-02-01T02:56:53;2.20;99.90
4787;DHT22;62338;48.832;9.422;2023-02-01T02:59:18;2.30;99.90
4787;DHT22;62338;48.832;9.422;2023-02-01T03:01:40;2.20;99.90
4787;DHT22;62338;48.832;9.422;2023-02-01T03:04:01;2.20;99.90
4787;DHT22;62338;48.832;9.422;2023-02-01T03:06:17;2.20;99.90
4787;DHT22;62338;48.832;9.422;2023-02-01T03:08:28;2.30;99.90
4787;DHT22;62338;48.832;9.422;2023-02-01T03:11:02;2.30;99.90
4787;DHT22;62338;48.832;9.422;2023-02-01T03:13:09;2.20;99.90
4787;DHT22;62338;48.832;9.422;2023-02-01T03:15:13;2.30;99.90
4787;DHT22;62338;48.832;9.422;2023-02-01T03:17:19;2.30;99.90
4787;DHT22;62338;48.832;9.422;2023-02-01T03:19:31;2.30;99.90
4787;DHT22;62338;48.832;9.422;2023-02-01T03:22:00;2.30;99.90
4787;DHT22;62338;48.832;9.422;2023-02-01T03:24:07;2.30;99.90
4787;DHT22;62338;48.832;9.422;2023-02-01T03:26:13;2.30;99.90
4787;DHT22;62338;48.832;9.422;2023-02-01T03:28:18;2.30;99.90
4787;DHT22;62338;48.832;9.422;2023-02-01T03:30:31;2.30;99.90
4787;DHT22;62338;48.832;9.422;2023-02-01T03:32:35;2.30;99.90
4787;DHT22;62338;48.832;9.422;2023-02-01T03:34:56;2.30;99.90
4787;DHT22;62338;48.832;9.422;2023-02-01T03:37:01;2.30;99.90
4787;DHT22;62338;48.832;9.422;2023-02-01T03:41:49;2.30;99.90
4787;DHT22;62338;48.832;9.422;2023-02-01T03:44:01;2.20;99.90
4787;DHT22;62338;48.832;9.422;2023-02-01T03:46:06;2.20;99.90
4787;DHT22;62338;48.832;9.422;2023-02-01T03:48:12;2.20;99.90
4787;DHT22;62338;48.832;9.422;2023-02-01T03:50:17;2.20;99.90
4787;DHT22;62338;48.832;9.422;2023-02-01T03:52:32;2.20;99.90
4787;DHT22;62338;48.832;9.422;2023-02-01T03:54:36;2.20;99.90
4787;DHT22;62338;48.832;9.422;2023-02-01T03:56:42;2.20;99.90
4787;DHT22;62338;48.832;9.422;2023-02-01T03:58:47;2.20;99.90
4787;DHT22;62338;48.832;9.422;2023-02-01T04:01:00;2.20;99.90
4787;DHT22;62338;48.832;9.422;2023-02-01T04:03:04;2.20;99.90
4787;DHT22;62338;48.832;9.422;2023-02-01T04:05:07;2.20;99.90
4787;DHT22;62338;48.832;9.422;2023-02-01T04:07:09;2.20;99.90
4787;DHT22;62338;48.832;9.422;2023-02-01T04:09:11;2.20;99.90
4787;DHT22;62338;48.832;9.422;2023-02-01T04:11:12;2.20;99.90
4787;DHT22;62338;48.832;9.422;2023-02-01T04:13:14;2.30;99.90
4787;DHT22;62338;48.832;9.422;2023-02-01T04:15:16;2.30;99.90
4787;DHT22;62338;48.832;9.422;2023-02-01T04:17:18;2.30;99.90
4787;DHT22;62338;48.832;9.422;2023-02-01T04:19:20;2.30;99.90
4787;DHT22;62338;48.832;9.422;2023-02-01T04:21:22;2.30;99.90
4787;DHT22;62338;48.832;9.422;2023-02-01T04:23:23;2.30;99.90
4787;DHT22;62338;48.832;9.422;2023-02-01T04:25:25;2.30;99.90
4787;DHT22;62338;48.832;9.422;2023-02-01T04:27:27;2.30;99.90
4787;DHT22;62338;48.832;9.422;2023-02-01T04:29:29;2.30;99.90
4787;DHT22;62338;48.832;9.422;2023-02-01T04:31:30;2.20;99.90
4787;DHT22;62338;48.832;9.422;2023-02-01T04:33:32;2.20;99.90
4787;DHT22;62338;48.832;9.422;2023-02-01T04:35:34;2.20;99.90
4787;DHT22;62338;48.832;9.422;2023-02-01T04:37:36;2.20;99.90
4787;DHT22;62338;48.832;9.422;2023-02-01T04:39:38;2.20;99.90
4787;DHT22;62338;48.832;9.422;2023-02-01T04:41:40;2.30;99.90
4787;DHT22;62338;48.832;9.422;2023-02-01T04:43:42;2.30;99.90
4787;DHT22;62338;48.832;9.422;2023-02-01T04:45:48;2.30;99.90
4787;DHT22;62338;48.832;9.422;2023-02-01T04:47:50;2.30;99.90
4787;DHT22;62338;48.832;9.422;2023-02-01T04:49:52;2.30;99.90
4787;DHT22;62338;48.832;9.422;2023-02-01T04:51:54;2.30;99.90
4787;DHT22;62338;48.832;9.422;2023-02-01T04:53:56;2.30;99.90
4787;DHT22;62338;48.832;9.422;2023-02-01T04:55:57;2.30;99.90
4787;DHT22;62338;48.832;9.422;2023-02-01T08:34:17;2.70;99.90
4787;DHT22;62338;48.832;9.422;2023-02-01T08:36:20;2.80;99.90
4787;DHT22;62338;48.832;9.422;2023-02-01T08:38:22;2.90;99.90
4787;DHT22;62338;48.832;9.422;2023-02-01T08:40:24;2.90;99.90
4787;DHT22;62338;48.832;9.422;2023-02-01T08:42:26;3.00;99.90
4787;DHT22;62338;48.832;9.422;2023-02-01T08:44:47;3.00;99.90
4787;DHT22;62338;48.832;9.422;2023-02-01T08:46:48;3.10;99.90
4787;DHT22;62338;48.832;9.422;2023-02-01T08:48:50;3.10;99.90
4787;DHT22;62338;48.832;9.422;2023-02-01T08:50:52;3.20;99.90
4787;DHT22;62338;48.832;9.422;2023-02-01T08:52:54;3.20;99.90
4787;DHT22;62338;48.832;9.422;2023-02-01T08:54:56;3.20;99.90
4787;DHT22;62338;48.832;9.422;2023-02-01T08:56:58;3.20;99.90
4787;DHT22;62338;48.832;9.422;2023-02-01T08:59:00;3.30;99.90
4787;DHT22;62338;48.832;9.422;2023-02-01T09:01:10;3.30;99.90
4787;DHT22;62338;48.832;9.422;2023-02-01T09:03:13;3.30;99.90
4787;DHT22;62338;48.832;9.422;2023-02-01T09:05:15;3.30;99.90
4787;DHT22;62338;48.832;9.422;2023-02-01T09:07:18;3.30;99.90
4787;DHT22;62338;48.832;9.422;2023-02-01T09:09:19;3.30;99.90
4787;DHT22;62338;48.832;9.422;2023-02-01T09:11:21;3.40;99.90
4787;DHT22;62338;48.832;9.422;2023-02-01T09:13:23;3.40;99.90
4787;DHT22;62338;48.832;9.422;2023-02-01T09:15:26;3.50;99.90
4787;DHT22;62338;48.832;9.422;2023-02-01T09:17:29;3.50;99.90
4787;DHT22;62338;48.832;9.422;2023-02-01T09:19:31;3.50;99.90
4787;DHT22;62338;48.832;9.422;2023-02-01T09:24:47;3.50;99.90
4787;DHT22;62338;48.832;9.422;2023-02-01T09:26:49;3.40;99.90
4787;DHT22;62338;48.832;9.422;2023-02-01T09:28:51;3.40;99.90
4787;DHT22;62338;48.832;9.422;2023-02-01T09:31:00;3.40;99.90
4787;DHT22;62338;48.832;9.422;2023-02-01T09:33:03;3.30;99.90
4787;DHT22;62338;48.832;9.422;2023-02-01T09:35:05;3.20;99.90
4787;DHT22;62338;48.832;9.422;2023-02-01T09:37:07;3.20;99.90
4787;DHT22;62338;48.832;9.422;2023-02-01T09:39:08;3.20;99.90
4787;DHT22;62338;48.832;9.422;2023-02-01T09:43:48;3.10;99.90
4787;DHT22;62338;48.832;9.422;2023-02-01T09:48:29;3.30;99.90
4787;DHT22;62338;48.832;9.422;2023-02-01T09:50:38;3.30;99.90
4787;DHT22;62338;48.832;9.422;2023-02-01T09:52:44;3.40;99.90
4787;DHT22;62338;48.832;9.422;2023-02-01T09:54:52;3.40;99.90
4787;DHT22;62338;48.832;9.422;2023-02-01T10:01:31;3.50;99.90
4787;DHT22;62338;48.832;9.422;2023-02-01T10:03:34;3.50;94.40
4787;DHT22;62338;48.832;9.422;2023-02-01T10:06:10;3.50;81.00
4787;DHT22;62338;48.832;9.422;2023-02-01T10:10:47;3.60;25.60
4787;DHT22;62338;48.832;9.422;2023-02-01T10:19:55;3.90;11.20
4787;DHT22;62338;48.832;9.422;2023-02-01T10:22:04;4.10;1.00
4787;DHT22;62338;48.832;9.422;2023-02-01T10:26:24;4.40;1.00
4787;DHT22;62338;48.832;9.422;2023-02-01T10:28:26;4.50;1.00
4787;DHT22;62338;48.832;9.422;2023-02-01T10:30:33;4.80;1.00
4787;DHT22;62338;48.832;9.422;2023-02-01T10:32:40;4.90;1.00
4787;DHT22;62338;48.832;9.422;2023-02-01T10:34:44;5.00;1.00
4787;DHT22;62338;48.832;9.422;2023-02-01T10:36:55;5.00;1.00
4787;DHT22;62338;48.832;9.422;2023-02-01T10:38:58;5.00;1.00
4787;DHT22;62338;48.832;9.422;2023-02-01T10:41:15;5.00;1.00
4787;DHT22;62338;48.832;9.422;2023-02-01T10:43:17;4.90;1.00
4787;DHT22;62338;48.832;9.422;2023-02-01T10:45:22;5.00;1.00
4787;DHT22;62338;48.832;9.422;2023-02-01T10:47:24;4.90;1.00
4787;DHT22;62338;48.832;9.422;2023-02-01T10:49:33;4.90;1.00
4787;DHT22;62338;48.832;9.422;2023-02-01T10:51:53;4.90;1.00
4787;DHT22;62338;48.832;9.422;2023-02-01T10:54:03;4.80;1.00
4787;DHT22;62338;48.832;9.422;2023-02-01T10:56:08;4.70;1.00
4787;DHT22;62338;48.832;9.422;2023-02-01T10:58:28;4.60;1.00
4787;DHT22;62338;48.832;9.422;2023-02-01T11:00:54;4.60;1.00
4787;DHT22;62338;48.832;9.422;2023-02-01T11:02:57;4.60;1.00
4787;DHT22;62338;48.832;9.422;2023-02-01T11:05:10;4.50;1.00
4787;DHT22;62338;48.832;9.422;2023-02-01T11:07:24;4.50;1.00
4787;DHT22;62338;48.832;9.422;2023-02-01T11:09:26;4.50;1.00
4787;DHT22;62338;48.832;9.422;2023-02-01T11:11:27;4.40;1.00
4787;DHT22;62338;48.832;9.422;2023-02-01T11:13:32;4.40;1.00
4787;DHT22;62338;48.832;9.422;2023-02-01T11:15:38;4.50;1.00
4787;DHT22;62338;48.832;9.422;2023-02-01T11:17:45;4.50;1.00
4787;DHT22;62338;48.832;9.422;2023-02-01T11:19:59;4.60;1.00
4787;DHT22;62338;48.832;9.422;2023-02-01T11:22:01;4.70;1.00
4787;DHT22;62338;48.832;9.422;2023-02-01T11:24:05;4.70;1.00
4787;DHT22;62338;48.832;9.422;2023-02-01T11:26:23;4.60;1.00
4787;DHT22;62338;48.832;9.422;2023-02-01T11:28:31;4.70;1.00
4787;DHT22;62338;48.832;9.422;2023-02-01T11:30:39;4.60;1.00
4787;DHT22;62338;48.832;9.422;2023-02-01T11:32:42;4.60;1.00
4787;DHT22;62338;48.832;9.422;2023-02-01T11:34:49;4.50;1.00
4787;DHT22;62338;48.832;9.422;2023-02-01T11:36:55;4.60;1.00
4787;DHT22;62338;48.832;9.422;2023-02-01T11:41:20;4.60;1.00
4787;DHT22;62338;48.832;9.422;2023-02-01T11:43:25;4.70;1.00
4787;DHT22;62338;48.832;9.422;2023-02-01T11:45:29;4.70;1.00
4787;DHT22;62338;48.832;9.422;2023-02-01T11:47:38;4.70;99.90
4787;DHT22;62338;48.832;9.422;2023-02-01T11:49:41;4.70;1.00
4787;DHT22;62338;48.832;9.422;2023-02-01T11:54:17;4.70;99.90
4787;DHT22;62338;48.832;9.422;2023-02-01T11:56:36;4.70;1.00
4787;DHT22;62338;48.832;9.422;2023-02-01T12:01:24;4.60;1.00
4787;DHT22;62338;48.832;9.422;2023-02-01T12:03:40;4.70;1.00
4787;DHT22;62338;48.832;9.422;2023-02-01T12:10:28;4.70;99.90
4787;DHT22;62338;48.832;9.422;2023-02-01T12:12:48;4.60;99.90
4787;DHT22;62338;48.832;9.422;2023-02-01T12:19:39;4.60;99.90
4787;DHT22;62338;48.832;9.422;2023-02-01T12:26:27;4.60;52.90
4787;DHT22;62338;48.832;9.422;2023-02-01T12:42:22;4.40;99.90
4787;DHT22;62338;48.832;9.422;2023-02-01T12:44:34;4.40;99.90
4787;DHT22;62338;48.832;9.422;2023-02-01T12:47:00;4.40;99.90
4787;DHT22;62338;48.832;9.422;2023-02-01T12:49:18;4.40;99.90
4787;DHT22;62338;48.832;9.422;2023-02-01T12:51:25;4.50;99.90
4787;DHT22;62338;48.832;9.422;2023-02-01T12:53:47;4.40;99.90
4787;DHT22;62338;48.832;9.422;2023-02-01T12:55:58;4.50;99.90
4787;DHT22;62338;48.832;9.422;2023-02-01T12:58:21;4.50;99.90
4787;DHT22;62338;48.832;9.422;2023-02-01T13:00:36;4.40;99.90
4787;DHT22;62338;48.832;9.422;2023-02-01T13:05:36;4.30;99.90
4787;DHT22;62338;48.832;9.422;2023-02-01T13:08:08;4.20;1.00
4787;DHT22;62338;48.832;9.422;2023-02-01T13:10:21;4.20;1.00
4787;DHT22;62338;48.832;9.422;2023-02-01T13:12:40;4.10;1.00
4787;DHT22;62338;48.832;9.422;2023-02-01T13:14:50;4.10;1.00
4787;DHT22;62338;48.832;9.422;2023-02-01T13:17:19;4.20;1.00
4787;DHT22;62338;48.832;9.422;2023-02-01T13:19:52;4.20;1.00
4787;DHT22;62338;48.832;9.422;2023-02-01T13:21:56;4.10;1.00
4787;DHT22;62338;48.832;9.422;2023-02-01T13:24:01;4.10;1.00
4787;DHT22;62338;48.832;9.422;2023-02-01T13:26:03;4.10;1.00
4787;DHT22;62338;48.832;9.422;2023-02-01T13:28:16;4.00;1.00
4787;DHT22;62338;48.832;9.422;2023-02-01T13:30:40;3.90;1.00
4787;DHT22;62338;48.832;9.422;2023-02-01T13:37:58;3.80;1.00
4787;DHT22;62338;48.832;9.422;2023-02-01T13:42:33;4.00;1.00
4787;DHT22;62338;48.832;9.422;2023-02-01T13:45:02;4.10;1.00
4787;DHT22;62338;48.832;9.422;2023-02-01T13:49:27;4.10;1.00
4787;DHT22;62338;48.832;9.422;2023-02-01T13:53:36;4.10;1.00
4787;DHT22;62338;48.832;9.422;2023-02-01T13:55:44;4.10;1.00
4787;DHT22;62338;48.832;9.422;2023-02-01T13:57:58;4.10;1.00
4787;DHT22;62338;48.832;9.422;2023-02-01T14:04:51;4.20;1.00
4787;DHT22;62338;48.832;9.422;2023-02-01T14:06:53;4.30;1.00
4787;DHT22;62338;48.832;9.422;2023-02-01T14:09:13;4.40;1.00
4787;DHT22;62338;48.832;9.422;2023-02-01T14:11:52;4.40;1.00
4787;DHT22;62338;48.832;9.422;2023-02-01T14:13:55;4.40;1.00
4787;DHT22;62338;48.832;9.422;2023-02-01T14:20:45;4.20;1.00
4787;DHT22;62338;48.832;9.422;2023-02-01T14:22:50;4.10;1.00
4787;DHT22;62338;48.832;9.422;2023-02-01T14:24:55;4.10;1.00
4787;DHT22;62338;48.832;9.422;2023-02-01T14:31:39;4.10;1.00
4787;DHT22;62338;48.832;9.422;2023-02-01T14:33:42;4.10;1.00
4787;DHT22;62338;48.832;9.422;2023-02-01T14:36:03;4.00;1.00
4787;DHT22;62338;48.832;9.422;2023-02-01T14:38:08;4.00;1.00
4787;DHT22;62338;48.832;9.422;2023-02-01T14:42:42;4.00;1.00
4787;DHT22;62338;48.832;9.422;2023-02-01T14:44:45;4.00;1.00
4787;DHT22;62338;48.832;9.422;2023-02-01T14:49:11;4.00;1.00
4787;DHT22;62338;48.832;9.422;2023-02-01T14:51:15;4.00;1.00
4787;DHT22;62338;48.832;9.422;2023-02-01T14:53:19;4.00;1.00
4787;DHT22;62338;48.832;9.422;2023-02-01T14:57:54;4.10;1.00
4787;DHT22;62338;48.832;9.422;2023-02-01T15:00:16;4.10;1.00
4787;DHT22;62338;48.832;9.422;2023-02-01T15:02:25;4.10;1.00
4787;DHT22;62338;48.832;9.422;2023-02-01T15:04:27;4.10;1.00
4787;DHT22;62338;48.832;9.422;2023-02-01T15:06:33;4.10;1.00
4787;DHT22;62338;48.832;9.422;2023-02-01T15:08:39;4.10;1.00
4787;DHT22;62338;48.832;9.422;2023-02-01T15:10:45;4.10;1.00
4787;DHT22;62338;48.832;9.422;2023-02-01T15:12:48;4.10;1.00
4787;DHT22;62338;48.832;9.422;2023-02-01T15:17:24;4.10;1.00
4787;DHT22;62338;48.832;9.422;2023-02-01T15:19:28;4.10;1.00
4787;DHT22;62338;48.832;9.422;2023-02-01T15:21:31;4.10;1.00
4787;DHT22;62338;48.832;9.422;2023-02-01T15:23:33;4.10;1.00
4787;DHT22;62338;48.832;9.422;2023-02-01T15:25:37;4.10;1.00
4787;DHT22;62338;48.832;9.422;2023-02-01T15:27:40;4.10;1.00
4787;DHT22;62338;48.832;9.422;2023-02-01T15:29:42;4.10;1.00
4787;DHT22;62338;48.832;9.422;2023-02-01T15:31:47;4.10;1.00
4787;DHT22;62338;48.832;9.422;2023-02-01T15:33:58;4.10;1.00
4787;DHT22;62338;48.832;9.422;2023-02-01T15:40:21;4.10;1.00
4787;DHT22;62338;48.832;9.422;2023-02-01T15:42:23;4.10;1.00
4787;DHT22;62338;48.832;9.422;2023-02-01T15:44:38;4.10;1.00
4787;DHT22;62338;48.832;9.422;2023-02-01T15:46:49;4.10;1.00
4787;DHT22;62338;48.832;9.422;2023-02-01T15:48:53;4.10;1.00
4787;DHT22;62338;48.832;9.422;2023-02-01T15:50:55;4.10;1.00
4787;DHT22;62338;48.832;9.422;2023-02-01T15:52:57;4.10;1.00
4787;DHT22;62338;48.832;9.422;2023-02-01T15:55:18;4.10;1.00
4787;DHT22;62338;48.832;9.422;2023-02-01T15:57:31;4.10;1.00
4787;DHT22;62338;48.832;9.422;2023-02-01T15:59:44;4.10;1.00
4787;DHT22;62338;48.832;9.422;2023-02-01T16:01:47;4.10;1.00
4787;DHT22;62338;48.832;9.422;2023-02-01T16:03:49;4.10;1.00
4787;DHT22;62338;48.832;9.422;2023-02-01T16:08:28;4.10;1.00
4787;DHT22;62338;48.832;9.422;2023-02-01T16:10:31;4.10;1.00
4787;DHT22;62338;48.832;9.422;2023-02-01T16:14:44;4.10;1.00
4787;DHT22;62338;48.832;9.422;2023-02-01T16:16:46;4.10;1.00
4787;DHT22;62338;48.832;9.422;2023-02-01T16:18:48;4.10;99.90
4787;DHT22;62338;48.832;9.422;2023-02-01T16:20:50;4.10;99.90
4787;DHT22;62338;48.832;9.422;2023-02-01T16:22:52;4.10;99.90
4787;DHT22;62338;48.832;9.422;2023-02-01T16:24:53;4.10;99.90
4787;DHT22;62338;48.832;9.422;2023-02-01T16:26:55;4.10;99.90
4787;DHT22;62338;48.832;9.422;2023-02-01T16:28:58;4.10;99.90
4787;DHT22;62338;48.832;9.422;2023-02-01T16:31:00;4.10;99.90
4787;DHT22;62338;48.832;9.422;2023-02-01T16:33:02;4.10;99.90
4787;DHT22;62338;48.832;9.422;2023-02-01T16:35:15;4.10;99.90
4787;DHT22;62338;48.832;9.422;2023-02-01T16:37:23;4.10;99.90
4787;DHT22;62338;48.832;9.422;2023-02-01T16:39:25;4.10;99.90
4787;DHT22;62338;48.832;9.422;2023-02-01T16:41:29;4.10;99.90
4787;DHT22;62338;48.832;9.422;2023-02-01T16:43:30;4.10;99.90
4787;DHT22;62338;48.832;9.422;2023-02-01T16:45:32;4.20;99.90
4787;DHT22;62338;48.832;9.422;2023-02-01T16:47:37;4.20;99.90
4787;DHT22;62338;48.832;9.422;2023-02-01T16:49:41;4.10;99.90
4787;DHT22;62338;48.832;9.422;2023-02-01T16:51:43;4.10;99.90
4787;DHT22;62338;48.832;9.422;2023-02-01T16:53:45;4.10;99.90
4787;DHT22;62338;48.832;9.422;2023-02-01T16:55:55;4.10;99.90
4787;DHT22;62338;48.832;9.422;2023-02-01T16:57:58;4.10;99.90
4787;DHT22;62338;48.832;9.422;2023-02-01T17:00:01;4.10;99.90
4787;DHT22;62338;48.832;9.422;2023-02-01T17:02:23;4.10;99.90
4787;DHT22;62338;48.832;9.422;2023-02-01T17:04:25;4.10;99.90
4787;DHT22;62338;48.832;9.422;2023-02-01T17:06:28;4.10;99.90
4787;DHT22;62338;48.832;9.422;2023-02-01T17:08:34;4.10;99.90
4787;DHT22;62338;48.832;9.422;2023-02-01T17:10:37;4.00;99.90
4787;DHT22;62338;48.832;9.422;2023-02-01T17:12:39;4.00;99.90
4787;DHT22;62338;48.832;9.422;2023-02-01T17:14:41;4.00;99.90
4787;DHT22;62338;48.832;9.422;2023-02-01T17:16:44;4.00;99.90
4787;DHT22;62338;48.832;9.422;2023-02-01T17:18:53;4.00;99.90
4787;DHT22;62338;48.832;9.422;2023-02-01T17:20:55;4.00;99.90
4787;DHT22;62338;48.832;9.422;2023-02-01T17:22:57;4.00;99.90
4787;DHT22;62338;48.832;9.422;2023-02-01T17:24:59;4.00;99.90
4787;DHT22;62338;48.832;9.422;2023-02-01T17:27:01;4.00;99.90
4787;DHT22;62338;48.832;9.422;2023-02-01T17:29:05;4.00;99.90
4787;DHT22;62338;48.832;9.422;2023-02-01T17:31:10;4.00;99.90
4787;DHT22;62338;48.832;9.422;2023-02-01T17:33:40;4.00;99.90
4787;DHT22;62338;48.832;9.422;2023-02-01T17:35:41;4.00;99.90
4787;DHT22;62338;48.832;9.422;2023-02-01T17:37:43;4.00;99.90
4787;DHT22;62338;48.832;9.422;2023-02-01T17:39:45;4.00;99.90
4787;DHT22;62338;48.832;9.422;2023-02-01T17:41:55;4.10;99.90
4787;DHT22;62338;48.832;9.422;2023-02-01T17:43:57;4.10;99.90
4787;DHT22;62338;48.832;9.422;2023-02-01T17:46:09;4.10;99.90
4787;DHT22;62338;48.832;9.422;2023-02-01T17:48:11;4.10;99.90
4787;DHT22;62338;48.832;9.422;2023-02-01T17:50:13;4.10;99.90
4787;DHT22;62338;48.832;9.422;2023-02-01T17:52:17;4.10;99.90
4787;DHT22;62338;48.832;9.422;2023-02-01T17:54:19;4.10;99.90
4787;DHT22;62338;48.832;9.422;2023-02-01T17:56:23;4.10;99.90
4787;DHT22;62338;48.832;9.422;2023-02-01T17:58:25;4.10;99.90
4787;DHT22;62338;48.832;9.422;2023-02-01T18:00:31;4.10;99.90
4787;DHT22;62338;48.832;9.422;2023-02-01T18:02:33;4.10;99.90
4787;DHT22;62338;48.832;9.422;2023-02-01T18:04:34;4.10;99.90
4787;DHT22;62338;48.832;9.422;2023-02-01T18:06:38;4.10;99.90
4787;DHT22;62338;48.832;9.422;2023-02-01T18:08:40;4.10;99.90
4787;DHT22;62338;48.832;9.422;2023-02-01T18:10:43;4.00;99.90
4787;DHT22;62338;48.832;9.422;2023-02-01T18:12:45;4.00;99.90
4787;DHT22;62338;48.832;9.422;2023-02-01T18:14:47;4.00;99.90
4787;DHT22;62338;48.832;9.422;2023-02-01T18:16:49;4.10;99.90
4787;DHT22;62338;48.832;9.422;2023-02-01T18:18:51;4.10;99.90
4787;DHT22;62338;48.832;9.422;2023-02-01T18:20:53;4.10;99.90
4787;DHT22;62338;48.832;9.422;2023-02-01T18:22:55;4.10;99.90
4787;DHT22;62338;48.832;9.422;2023-02-01T18:24:56;4.10;99.90
4787;DHT22;62338;48.832;9.422;2023-02-01T18:26:59;4.10;99.90
4787;DHT22;62338;48.832;9.422;2023-02-01T18:29:01;4.10;99.90
4787;DHT22;62338;48.832;9.422;2023-02-01T18:31:04;4.10;99.90
4787;DHT22;62338;48.832;9.422;2023-02-01T18:33:14;4.10;99.90
4787;DHT22;62338;48.832;9.422;2023-02-01T18:35:20;4.10;1.00
4787;DHT22;62338;48.832;9.422;2023-02-01T18:37:22;4.10;1.00
4787;DHT22;62338;48.832;9.422;2023-02-01T18:39:24;4.10;1.00
4787;DHT22;62338;48.832;9.422;2023-02-01T18:41:26;4.10;1.00
4787;DHT22;62338;48.832;9.422;2023-02-01T18:43:28;4.10;1.00
4787;DHT22;62338;48.832;9.422;2023-02-01T18:45:35;4.10;1.00
4787;DHT22;62338;48.832;9.422;2023-02-01T18:47:37;4.10;1.00
4787;DHT22;62338;48.832;9.422;2023-02-01T18:49:39;4.10;1.00
4787;DHT22;62338;48.832;9.422;2023-02-01T18:51:41;4.00;1.00
4787;DHT22;62338;48.832;9.422;2023-02-01T18:53:44;4.00;1.00
4787;DHT22;62338;48.832;9.422;2023-02-01T18:55:46;4.00;1.00
4787;DHT22;62338;48.832;9.422;2023-02-01T18:57:49;4.10;1.00
4787;DHT22;62338;48.832;9.422;2023-02-01T18:59:51;4.00;1.00
4787;DHT22;62338;48.832;9.422;2023-02-01T19:01:52;4.00;1.00
4787;DHT22;62338;48.832;9.422;2023-02-01T19:03:54;4.00;1.00
4787;DHT22;62338;48.832;9.422;2023-02-01T19:06:16;4.00;1.00
4787;DHT22;62338;48.832;9.422;2023-02-01T19:08:18;4.00;1.00
4787;DHT22;62338;48.832;9.422;2023-02-01T19:10:22;4.00;1.00
4787;DHT22;62338;48.832;9.422;2023-02-01T19:12:24;4.00;1.00
4787;DHT22;62338;48.832;9.422;2023-02-01T19:14:25;4.00;1.00
4787;DHT22;62338;48.832;9.422;2023-02-01T19:16:27;4.00;1.00
4787;DHT22;62338;48.832;9.422;2023-02-01T19:18:29;4.00;1.00
4787;DHT22;62338;48.832;9.422;2023-02-01T19:20:31;4.00;1.00
4787;DHT22;62338;48.832;9.422;2023-02-01T19:22:33;4.00;1.00
4787;DHT22;62338;48.832;9.422;2023-02-01T19:24:35;4.00;1.00
4787;DHT22;62338;48.832;9.422;2023-02-01T19:26:36;4.00;1.00
4787;DHT22;62338;48.832;9.422;2023-02-01T19:28:38;4.00;99.90
4787;DHT22;62338;48.832;9.422;2023-02-01T19:30:40;4.10;99.90
4787;DHT22;62338;48.832;9.422;2023-02-01T19:32:42;4.00;99.90
4787;DHT22;62338;48.832;9.422;2023-02-01T19:34:44;4.00;99.90
4787;DHT22;62338;48.832;9.422;2023-02-01T19:36:46;4.10;99.90
